createdAt,value
2023-11-18T00:00:47.555Z,6.70
2023-11-18T00:03:14.190Z,6.38
2023-11-18T00:05:40.861Z,6.50
2023-11-18T00:08:07.821Z,7.10
2023-11-18T00:10:34.581Z,6.15
2023-11-18T00:13:03.122Z,6.28
2023-11-18T00:15:29.858Z,8.93
2023-11-18T00:17:56.520Z,8.93
2023-11-18T00:20:25.251Z,6.38
2023-11-18T00:22:53.766Z,7.47
2023-11-18T00:25:20.446Z,6.53
2023-11-18T00:27:47.055Z,8.52
2023-11-18T00:30:15.196Z,6.30
2023-11-18T00:32:42.053Z,6.43
2023-11-18T00:35:11.370Z,6.40
2023-11-18T00:37:38.539Z,7.45
2023-11-18T00:40:05.860Z,6.25
2023-11-18T00:42:32.726Z,6.85
2023-11-18T00:44:59.404Z,6.57
2023-11-18T00:47:26.119Z,5.90
2023-11-18T00:49:55.724Z,6.28
2023-11-18T00:52:22.451Z,5.57
2023-11-18T00:54:49.066Z,7.30
2023-11-18T00:57:15.761Z,5.60
2023-11-18T00:59:44.182Z,6.60
2023-11-18T01:02:10.950Z,5.68
2023-11-18T01:04:37.683Z,8.68
2023-11-18T01:07:04.462Z,6.55
2023-11-18T01:09:37.444Z,6.85
2023-11-18T01:12:08.342Z,7.15
2023-11-18T01:14:38.933Z,7.38
2023-11-18T01:17:06.920Z,6.53
2023-11-18T01:19:34.756Z,7.18
2023-11-18T01:22:02.140Z,7.32
2023-11-18T01:24:29.344Z,8.45
2023-11-18T01:26:55.954Z,5.53
2023-11-18T01:29:23.430Z,6.57
2023-11-18T01:31:52.731Z,7.05
2023-11-18T01:34:23.684Z,6.50
2023-11-18T01:36:50.996Z,6.63
2023-11-18T01:39:18.992Z,7.28
2023-11-18T01:41:47.360Z,7.47
2023-11-18T01:44:16.995Z,6.57
2023-11-18T01:46:47.225Z,6.68
2023-11-18T01:49:15.499Z,7.20
2023-11-18T01:51:47.171Z,6.32
2023-11-18T01:54:19.810Z,7.07
2023-11-18T01:56:49.510Z,6.63
2023-11-18T01:59:19.884Z,5.63
2023-11-18T02:01:54.311Z,6.50
2023-11-18T02:04:22.351Z,6.47
2023-11-18T02:06:50.450Z,6.45
2023-11-18T02:09:28.601Z,6.63
2023-11-18T02:12:21.484Z,6.03
2023-11-18T02:14:50.753Z,8.38
2023-11-18T02:17:21.118Z,6.03
2023-11-18T02:19:48.183Z,7.15
2023-11-18T02:22:16.642Z,7.95
2023-11-18T02:24:43.624Z,6.38
2023-11-18T02:27:13.478Z,7.93
2023-11-18T02:29:46.769Z,5.82
2023-11-18T02:32:25.055Z,6.80
2023-11-18T02:35:11.373Z,9.48
2023-11-18T02:37:46.193Z,6.28
2023-11-18T02:40:20.004Z,6.28
2023-11-18T02:42:47.121Z,7.75
2023-11-18T02:45:18.450Z,7.13
2023-11-18T02:47:48.826Z,6.68
2023-11-18T02:50:16.659Z,8.15
2023-11-18T02:52:45.668Z,6.28
2023-11-18T02:55:12.500Z,7.13
2023-11-18T02:57:40.061Z,7.20
2023-11-18T03:00:19.927Z,6.90
2023-11-18T03:02:49.486Z,8.05
2023-11-18T03:05:16.311Z,8.98
2023-11-18T03:07:43.580Z,7.32
2023-11-18T03:10:14.568Z,7.10
2023-11-18T03:12:41.894Z,7.38
2023-11-18T03:15:12.830Z,7.43
2023-11-18T03:17:39.609Z,8.38
2023-11-18T03:20:09.401Z,7.72
2023-11-18T03:22:36.092Z,8.75
2023-11-18T03:25:03.107Z,7.85
2023-11-18T03:27:30.423Z,8.98
2023-11-18T03:29:57.062Z,10.85
2023-11-18T03:32:23.723Z,11.30
2023-11-18T03:34:50.379Z,10.23
2023-11-18T03:37:17.070Z,8.57
2023-11-18T03:39:43.725Z,7.38
2023-11-18T03:42:10.628Z,9.25
2023-11-18T03:44:38.693Z,7.13
2023-11-18T03:47:05.598Z,7.90
2023-11-18T03:49:32.483Z,7.95
2023-11-18T03:51:59.191Z,9.05
2023-11-18T03:54:25.879Z,8.98
2023-11-18T03:56:53.716Z,8.95
2023-11-18T03:59:20.410Z,7.63
2023-11-18T04:01:50.110Z,7.72
2023-11-18T04:04:17.939Z,8.73
2023-11-18T04:06:45.098Z,9.40
2023-11-18T04:09:11.789Z,7.93
2023-11-18T04:11:39.696Z,8.93
2023-11-18T04:14:06.492Z,7.93
2023-11-18T04:16:33.181Z,8.20
2023-11-18T04:18:59.817Z,9.00
2023-11-18T04:21:26.427Z,8.05
2023-11-18T04:23:53.107Z,9.07
2023-11-18T04:26:19.813Z,8.15
2023-11-18T04:28:46.415Z,9.02
2023-11-18T04:31:13.452Z,8.05
2023-11-18T04:33:41.486Z,8.65
2023-11-18T04:36:11.042Z,8.73
2023-11-18T04:38:37.640Z,8.43
2023-11-18T04:41:04.822Z,8.25
2023-11-18T04:43:39.229Z,8.15
2023-11-18T04:46:12.085Z,9.90
2023-11-18T04:48:42.411Z,9.18
2023-11-18T04:51:10.111Z,8.27
2023-11-18T04:53:36.767Z,9.48
2023-11-18T04:56:04.166Z,8.27
2023-11-18T04:58:30.904Z,7.65
2023-11-18T05:00:57.854Z,8.73
2023-11-18T05:03:25.481Z,9.15
2023-11-18T05:05:54.444Z,8.57
2023-11-18T05:08:23.009Z,8.75
2023-11-18T05:10:50.738Z,8.55
2023-11-18T05:13:18.406Z,10.20
2023-11-18T05:15:48.245Z,9.05
2023-11-18T05:18:16.661Z,8.82
2023-11-18T05:20:45.273Z,10.40
2023-11-18T05:23:12.765Z,11.40
2023-11-18T05:25:46.993Z,9.05
2023-11-18T05:28:14.787Z,9.40
2023-11-18T05:30:44.849Z,9.30
2023-11-18T05:33:16.372Z,9.52
2023-11-18T05:35:49.900Z,8.15
2023-11-18T05:38:22.771Z,8.95
2023-11-18T05:40:58.505Z,9.27
2023-11-18T05:43:32.195Z,8.30
2023-11-18T05:46:15.870Z,7.72
2023-11-18T05:48:46.285Z,8.75
2023-11-18T05:51:13.194Z,8.57
2023-11-18T05:53:47.175Z,8.63
2023-11-18T05:56:14.749Z,7.53
2023-11-18T05:58:41.662Z,9.68
2023-11-18T06:01:08.953Z,10.20
2023-11-18T06:03:40.561Z,11.18
2023-11-18T06:06:08.935Z,10.68
2023-11-18T06:08:36.771Z,9.27
2023-11-18T06:11:13.815Z,10.95
2023-11-18T06:13:47.748Z,10.88
2023-11-18T06:16:17.438Z,10.15
2023-11-18T06:18:45.609Z,10.48
2023-11-18T06:21:26.138Z,8.75
2023-11-18T06:23:53.290Z,8.60
2023-11-18T06:26:20.253Z,12.38
2023-11-18T06:28:47.815Z,11.27
2023-11-18T06:31:15.311Z,10.02
2023-11-18T06:33:47.006Z,11.82
2023-11-18T06:36:17.935Z,9.95
2023-11-18T06:38:45.568Z,11.90
2023-11-18T06:41:17.785Z,11.65
2023-11-18T06:44:06.193Z,12.90
2023-11-18T06:46:35.458Z,10.23
2023-11-18T06:49:07.770Z,10.50
2023-11-18T06:51:37.308Z,11.88
2023-11-18T06:54:10.110Z,15.55
2023-11-18T06:56:38.881Z,11.40
2023-11-18T06:59:08.879Z,11.73
2023-11-18T07:01:36.750Z,12.88
2023-11-18T07:04:04.013Z,10.48
2023-11-18T07:06:30.721Z,13.45
2023-11-18T07:09:01.784Z,10.85
2023-11-18T07:11:29.073Z,11.05
2023-11-18T07:14:00.355Z,10.43
2023-11-18T07:16:27.468Z,12.70
2023-11-18T07:18:54.380Z,12.02
2023-11-18T07:21:21.374Z,11.07
2023-11-18T07:23:48.176Z,11.80
2023-11-18T07:26:17.655Z,12.82
2023-11-18T07:28:45.280Z,11.25
2023-11-18T07:31:12.386Z,10.70
2023-11-18T07:33:40.379Z,12.10
2023-11-18T07:36:12.197Z,10.95
2023-11-18T07:38:38.805Z,12.07
2023-11-18T07:41:05.491Z,10.38
2023-11-18T07:43:34.901Z,10.65
2023-11-18T07:46:01.556Z,11.85
2023-11-18T07:48:29.240Z,12.65
2023-11-18T07:50:58.899Z,12.15
2023-11-18T07:53:26.759Z,11.65
2023-11-18T07:55:53.372Z,11.60
2023-11-18T07:58:21.286Z,11.93
2023-11-18T08:00:48.965Z,12.40
2023-11-18T08:03:15.781Z,11.38
2023-11-18T08:05:47.271Z,10.43
2023-11-18T08:08:17.999Z,12.20
2023-11-18T08:10:45.460Z,10.55
2023-11-18T08:13:12.560Z,13.45
2023-11-18T08:15:43.159Z,12.90
2023-11-18T08:18:13.046Z,13.18
2023-11-18T08:20:40.127Z,15.50
2023-11-18T08:23:06.907Z,12.52
2023-11-18T08:25:34.899Z,12.75
2023-11-18T08:28:01.953Z,11.85
2023-11-18T08:30:28.658Z,10.93
2023-11-18T08:32:55.291Z,11.25
2023-11-18T08:35:22.818Z,11.02
2023-11-18T08:37:49.594Z,12.18
2023-11-18T08:40:16.458Z,11.75
2023-11-18T08:42:51.995Z,14.38
2023-11-18T08:45:30.687Z,12.20
2023-11-18T08:47:58.398Z,12.45
2023-11-18T08:50:26.387Z,11.88
2023-11-18T08:52:59.219Z,13.70
2023-11-18T08:55:48.652Z,13.52
2023-11-18T08:58:23.079Z,14.15
2023-11-18T09:00:56.226Z,13.05
2023-11-18T09:03:27.168Z,12.85
2023-11-18T09:05:59.561Z,10.85
2023-11-18T09:08:30.828Z,9.10
2023-11-18T09:10:59.162Z,10.10
2023-11-18T09:13:32.924Z,9.88
2023-11-18T09:16:03.846Z,9.18
2023-11-18T09:18:31.905Z,8.93
2023-11-18T09:21:02.572Z,7.47
2023-11-18T09:23:30.900Z,8.52
2023-11-18T09:25:57.588Z,7.70
2023-11-18T09:28:25.626Z,7.57
2023-11-18T09:30:54.742Z,7.65
2023-11-18T09:33:30.248Z,6.95
2023-11-18T09:35:59.834Z,7.95
2023-11-18T09:38:30.164Z,6.82
2023-11-18T09:41:03.768Z,6.30
2023-11-18T09:43:34.086Z,7.53
2023-11-18T09:46:13.429Z,7.50
2023-11-18T09:48:48.350Z,5.55
2023-11-18T09:51:25.497Z,23.80
2023-11-18T09:53:54.531Z,8.23
2023-11-18T09:56:29.053Z,21.00
2023-11-18T09:59:32.341Z,6.57
2023-11-18T10:01:59.598Z,6.00
2023-11-18T10:04:28.861Z,5.55
2023-11-18T10:06:57.652Z,5.03
2023-11-18T10:09:38.402Z,5.25
2023-11-18T10:12:08.732Z,4.15
2023-11-18T10:14:44.719Z,4.53
2023-11-18T10:17:15.648Z,5.00
2023-11-18T10:20:04.619Z,3.90
2023-11-18T10:22:33.475Z,3.42
2023-11-18T10:25:02.392Z,4.47
2023-11-18T10:27:29.649Z,2.95
2023-11-18T10:30:03.672Z,4.28
2023-11-18T10:32:30.921Z,4.13
2023-11-18T10:34:58.798Z,2.80
2023-11-18T10:37:32.836Z,4.25
2023-11-18T10:40:05.385Z,2.97
2023-11-18T10:42:33.869Z,4.32
2023-11-18T10:45:04.432Z,3.65
2023-11-18T10:47:36.541Z,3.72
2023-11-18T10:50:03.994Z,3.92
2023-11-18T10:52:36.353Z,2.92
2023-11-18T10:55:12.481Z,3.15
2023-11-18T10:57:40.042Z,3.50
2023-11-18T11:00:20.684Z,3.03
2023-11-18T11:02:51.381Z,2.40
2023-11-18T11:05:34.605Z,2.90
2023-11-18T11:08:06.255Z,2.40
2023-11-18T11:10:33.213Z,2.42
2023-11-18T11:13:03.226Z,3.55
2023-11-18T11:15:44.763Z,2.25
2023-11-18T11:18:29.135Z,2.10
2023-11-18T11:21:08.624Z,2.22
2023-11-18T11:23:50.738Z,2.20
2023-11-18T11:26:45.681Z,2.72
2023-11-18T11:29:15.732Z,3.30
2023-11-18T11:31:49.376Z,3.50
2023-11-18T11:34:26.205Z,2.53
2023-11-18T11:39:27.492Z,2.17
2023-11-18T11:41:58.482Z,2.47
2023-11-18T11:44:32.434Z,3.28
2023-11-18T11:47:02.289Z,4.78
2023-11-18T11:49:42.703Z,2.50
2023-11-18T11:52:23.976Z,3.55
2023-11-18T11:55:06.793Z,3.20
2023-11-18T11:57:40.220Z,3.55
2023-11-18T12:00:17.113Z,3.60
2023-11-18T12:05:26.016Z,3.80
2023-11-18T12:07:56.864Z,3.17
2023-11-18T12:10:33.157Z,3.45
2023-11-18T12:13:18.003Z,3.95
2023-11-18T12:16:20.348Z,3.95
2023-11-18T12:19:25.545Z,3.20
2023-11-18T12:21:55.505Z,3.00
2023-11-18T12:24:23.513Z,3.17
2023-11-18T12:26:51.225Z,2.75
2023-11-18T12:29:37.601Z,2.65
2023-11-18T12:32:06.901Z,2.67
2023-11-18T12:34:56.062Z,3.50
2023-11-18T12:37:26.590Z,2.22
2023-11-18T12:40:03.963Z,2.90
2023-11-18T12:43:06.816Z,5.15
2023-11-18T12:45:42.141Z,2.88
2023-11-18T12:48:14.941Z,3.80
2023-11-18T12:50:46.836Z,3.20
2023-11-18T12:53:16.105Z,3.90
2023-11-18T12:55:43.773Z,4.40
2023-11-18T12:58:12.758Z,3.45
2023-11-18T13:00:43.896Z,3.20
2023-11-18T13:03:11.922Z,4.18
2023-11-18T13:05:38.854Z,4.22
2023-11-18T13:08:05.744Z,3.55
2023-11-18T13:10:32.555Z,3.88
2023-11-18T13:13:01.433Z,3.72
2023-11-18T13:15:28.448Z,3.75
2023-11-18T13:18:02.495Z,3.92
2023-11-18T13:20:30.108Z,3.92
2023-11-18T13:22:57.102Z,3.88
2023-11-18T13:25:24.715Z,4.63
2023-11-18T13:27:51.387Z,3.92
2023-11-18T13:30:19.413Z,3.35
2023-11-18T13:32:46.624Z,4.85
2023-11-18T13:35:19.058Z,3.92
2023-11-18T13:37:50.288Z,3.00
2023-11-18T13:40:20.177Z,3.67
2023-11-18T13:42:49.835Z,4.57
2023-11-18T13:45:30.488Z,3.60
2023-11-18T13:48:03.341Z,3.70
2023-11-18T13:50:30.275Z,3.63
2023-11-18T13:52:58.918Z,3.50
2023-11-18T13:55:29.083Z,4.65
2023-11-18T13:57:58.642Z,5.88
2023-11-18T14:00:32.166Z,3.67
2023-11-18T14:03:00.759Z,6.57
2023-11-18T14:05:27.683Z,4.80
2023-11-18T14:08:00.563Z,4.93
2023-11-18T14:10:27.556Z,4.30
2023-11-18T14:13:03.861Z,6.13
2023-11-18T14:15:31.620Z,4.43
2023-11-18T14:17:58.918Z,4.88
2023-11-18T14:20:25.803Z,4.70
2023-11-18T14:22:55.784Z,3.90
2023-11-18T14:25:25.257Z,4.82
2023-11-18T14:27:52.473Z,3.95
2023-11-18T14:30:20.687Z,5.05
2023-11-18T14:32:47.947Z,6.75
2023-11-18T14:35:18.361Z,8.55
2023-11-18T14:37:46.296Z,5.32
2023-11-18T14:40:17.280Z,5.82
2023-11-18T14:42:46.649Z,5.88
2023-11-18T14:45:16.760Z,4.40
2023-11-18T14:47:49.357Z,4.18
2023-11-18T14:50:20.806Z,4.00
2023-11-18T14:53:00.059Z,3.90
2023-11-18T14:55:30.793Z,4.75
2023-11-18T14:57:57.626Z,3.83
2023-11-18T15:00:27.716Z,4.78
2023-11-18T15:03:00.541Z,3.90
2023-11-18T15:05:28.490Z,6.75
2023-11-18T15:07:56.727Z,6.90
2023-11-18T15:10:25.420Z,4.88
2023-11-18T15:12:54.337Z,4.25
2023-11-18T15:15:32.567Z,4.32
2023-11-18T15:18:00.514Z,4.22
2023-11-18T15:20:27.289Z,5.45
2023-11-18T15:22:54.178Z,3.70
2023-11-18T15:25:20.875Z,7.05
2023-11-18T15:27:48.728Z,3.95
2023-11-18T15:30:17.552Z,3.95
2023-11-18T15:32:47.772Z,6.13
2023-11-18T15:35:17.605Z,6.38
2023-11-18T15:37:48.624Z,5.13
2023-11-18T15:40:20.556Z,3.78
2023-11-18T15:42:52.520Z,3.60
2023-11-18T15:45:20.056Z,4.40
2023-11-18T15:47:49.135Z,4.13
2023-11-18T15:50:18.007Z,4.20
2023-11-18T15:52:46.495Z,4.05
2023-11-18T15:55:16.153Z,4.82
2023-11-18T15:57:44.562Z,4.45
2023-11-18T16:00:16.927Z,3.80
2023-11-18T16:02:48.687Z,4.57
2023-11-18T16:05:18.038Z,4.63
2023-11-18T16:07:52.783Z,5.65
2023-11-18T16:10:22.501Z,5.65
2023-11-18T16:12:52.027Z,4.20
2023-11-18T16:15:23.079Z,4.57
2023-11-18T16:17:53.582Z,4.60
2023-11-18T16:20:23.134Z,4.10
2023-11-18T16:22:51.622Z,3.70
2023-11-18T16:25:24.249Z,4.72
2023-11-18T16:27:52.268Z,4.18
2023-11-18T16:30:25.100Z,4.50
2023-11-18T16:32:55.457Z,17.08
2023-11-18T16:35:22.404Z,8.73
2023-11-18T16:37:50.361Z,7.20
2023-11-18T16:40:17.848Z,9.07
2023-11-18T16:42:45.900Z,10.90
2023-11-18T16:45:13.691Z,14.35
2023-11-18T16:47:41.336Z,9.52
2023-11-18T16:50:11.949Z,7.05
2023-11-18T16:52:42.430Z,6.78
2023-11-18T16:55:10.306Z,7.57
2023-11-18T16:57:37.886Z,9.20
2023-11-18T17:00:23.344Z,8.00
2023-11-18T17:02:59.503Z,6.80
2023-11-18T17:05:30.068Z,5.30
2023-11-18T17:07:57.518Z,6.10
2023-11-18T17:10:24.592Z,4.97
2023-11-18T17:12:52.654Z,8.90
2023-11-18T17:15:19.914Z,5.40
2023-11-18T17:18:11.033Z,6.05
2023-11-18T17:20:37.729Z,6.65
2023-11-18T17:23:04.665Z,7.10
2023-11-18T17:25:31.378Z,5.68
2023-11-18T17:27:58.873Z,6.47
2023-11-18T17:30:25.477Z,5.50
2023-11-18T17:32:55.324Z,8.10
2023-11-18T17:35:22.783Z,7.22
2023-11-18T17:37:50.130Z,6.85
2023-11-18T17:40:22.591Z,7.60
2023-11-18T17:42:52.392Z,7.75
2023-11-18T17:45:20.606Z,8.80
2023-11-18T17:47:47.271Z,8.68
2023-11-18T17:50:16.372Z,9.13
2023-11-18T17:52:47.923Z,8.13
2023-11-18T17:55:15.869Z,8.32
2023-11-18T17:57:43.594Z,7.28
2023-11-18T18:00:20.344Z,8.05
2023-11-18T18:02:47.653Z,7.13
2023-11-18T18:05:14.377Z,7.65
2023-11-18T18:07:41.717Z,9.18
2023-11-18T18:10:09.737Z,8.00
2023-11-18T18:12:37.390Z,9.27
2023-11-18T18:15:09.546Z,7.60
2023-11-18T18:17:37.712Z,9.95
2023-11-18T18:20:10.826Z,8.23
2023-11-18T18:22:39.401Z,9.27
2023-11-18T18:25:07.050Z,9.73
2023-11-18T18:27:33.959Z,9.55
2023-11-18T18:30:01.302Z,9.98
2023-11-18T18:32:28.237Z,9.13
2023-11-18T18:34:54.849Z,9.68
2023-11-18T18:37:23.366Z,10.75
2023-11-18T18:39:53.645Z,10.60
2023-11-18T18:42:21.062Z,10.52
2023-11-18T18:44:48.403Z,13.10
2023-11-18T18:47:16.281Z,11.23
2023-11-18T18:49:43.449Z,11.98
2023-11-18T18:52:10.440Z,11.35
2023-11-18T18:54:37.080Z,10.68
2023-11-18T18:57:06.820Z,13.00
2023-11-18T18:59:33.654Z,10.55
2023-11-18T19:02:00.447Z,11.43
2023-11-18T19:04:27.314Z,11.90
2023-11-18T19:06:56.065Z,10.68
2023-11-18T19:09:22.902Z,11.35
2023-11-18T19:11:50.233Z,11.43
2023-11-18T19:14:16.991Z,14.48
2023-11-18T19:16:43.828Z,11.57
2023-11-18T19:19:11.200Z,12.45
2023-11-18T19:21:38.119Z,12.15
2023-11-18T19:24:05.354Z,11.73
2023-11-18T19:26:37.137Z,15.40
2023-11-18T19:29:04.607Z,14.65
2023-11-18T19:31:31.327Z,13.05
2023-11-18T19:33:59.544Z,14.65
2023-11-18T19:36:26.697Z,15.02
2023-11-18T19:38:53.363Z,12.75
2023-11-18T19:41:19.985Z,13.98
2023-11-18T19:43:46.762Z,12.98
2023-11-18T19:46:13.370Z,13.32
2023-11-18T19:48:40.026Z,16.73
2023-11-18T19:51:09.120Z,14.93
2023-11-18T19:53:35.785Z,14.23
2023-11-18T19:56:02.649Z,13.85
2023-11-18T19:58:29.263Z,14.82
2023-11-18T20:00:56.520Z,12.25
2023-11-18T20:03:23.605Z,13.20
2023-11-18T20:05:50.906Z,14.15
2023-11-18T20:08:20.153Z,13.18
2023-11-18T20:10:48.270Z,13.18
2023-11-18T20:13:15.853Z,14.55
2023-11-18T20:15:42.570Z,14.52
2023-11-18T20:18:12.559Z,13.82
2023-11-18T20:20:39.455Z,14.73
2023-11-18T20:23:06.402Z,14.40
2023-11-18T20:25:33.173Z,12.52
2023-11-18T20:27:59.791Z,12.38
2023-11-18T20:30:26.510Z,14.60
2023-11-18T20:32:53.261Z,13.98
2023-11-18T20:35:20.172Z,15.27
2023-11-18T20:37:48.876Z,13.85
2023-11-18T20:40:21.928Z,13.00
2023-11-18T20:42:50.184Z,11.63
2023-11-18T20:45:18.957Z,12.95
2023-11-18T20:47:46.790Z,13.05
2023-11-18T20:50:14.338Z,12.80
2023-11-18T20:52:42.408Z,11.80
2023-11-18T20:55:09.930Z,13.95
2023-11-18T20:57:37.435Z,11.23
2023-11-18T21:00:08.701Z,11.05
2023-11-18T21:02:36.297Z,12.05
2023-11-18T21:05:06.137Z,10.73
2023-11-18T21:07:33.276Z,13.02
2023-11-18T21:09:59.929Z,11.15
2023-11-18T21:12:26.691Z,12.23
2023-11-18T21:14:53.640Z,12.25
2023-11-18T21:17:25.591Z,11.55
2023-11-18T21:19:55.944Z,11.77
2023-11-18T21:22:23.973Z,12.43
2023-11-18T21:24:50.526Z,11.00
2023-11-18T21:27:18.182Z,12.88
2023-11-18T21:29:44.874Z,10.45
2023-11-18T21:32:12.259Z,12.00
2023-11-18T21:34:41.653Z,11.48
2023-11-18T21:37:11.366Z,13.13
2023-11-18T21:39:39.942Z,12.57
2023-11-18T21:42:09.375Z,10.75
2023-11-18T21:44:36.708Z,11.27
2023-11-18T21:47:03.976Z,13.95
2023-11-18T21:49:30.642Z,11.80
2023-11-18T21:51:57.273Z,11.07
2023-11-18T21:54:26.179Z,11.30
2023-11-18T21:56:53.142Z,11.75
2023-11-18T21:59:19.829Z,10.60
2023-11-18T22:01:46.478Z,11.38
2023-11-18T22:04:13.197Z,12.10
2023-11-18T22:06:39.851Z,11.30
2023-11-18T22:09:06.542Z,11.70
2023-11-18T22:14:04.271Z,9.77
2023-11-18T22:16:31.035Z,12.73
2023-11-18T22:18:57.709Z,12.63
2023-11-18T22:21:24.655Z,11.20
2023-11-18T22:23:51.395Z,11.73
2023-11-18T22:26:18.210Z,10.48
2023-11-18T22:28:45.906Z,11.20
2023-11-18T22:31:12.643Z,11.32
2023-11-18T22:33:39.417Z,10.55
2023-11-18T22:36:08.726Z,11.68
2023-11-18T22:38:35.499Z,11.05
2023-11-18T22:41:05.158Z,11.02
2023-11-18T22:43:31.942Z,10.98
2023-11-18T22:45:58.555Z,13.00
2023-11-18T22:48:26.891Z,11.68
2023-11-18T22:50:53.512Z,10.52
2023-11-18T22:53:21.390Z,10.48
2023-11-18T22:55:49.133Z,12.50
2023-11-18T22:58:15.903Z,13.07
2023-11-18T23:00:52.570Z,10.65
2023-11-18T23:03:20.063Z,10.05
2023-11-18T23:05:47.309Z,9.48
2023-11-18T23:08:18.317Z,11.02
2023-11-18T23:10:47.390Z,10.70
2023-11-18T23:13:14.998Z,9.38
2023-11-18T23:15:42.025Z,10.80
2023-11-18T23:18:10.493Z,10.13
2023-11-18T23:20:37.666Z,10.73
2023-11-18T23:23:05.996Z,10.18
2023-11-18T23:25:32.994Z,10.02
2023-11-18T23:28:02.215Z,12.48
2023-11-18T23:30:29.654Z,11.13
2023-11-18T23:32:56.413Z,10.35
2023-11-18T23:35:23.094Z,9.40
2023-11-18T23:37:52.850Z,7.43
2023-11-18T23:40:20.856Z,8.43
2023-11-18T23:42:48.950Z,7.72
2023-11-18T23:45:19.724Z,8.57
2023-11-18T23:47:51.027Z,8.88
2023-11-18T23:50:17.908Z,7.15
2023-11-18T23:52:44.518Z,7.93
2023-11-18T23:55:14.582Z,10.93
2023-11-18T23:57:42.380Z,6.57
